Terminal Aerodrome Forecast
Issued by NWS

Home | Current Version | Previous Version | Text Only | Print | Product List | Glossary On
Versions: 1 2 3 4 5 6 7 8 9 10 11 12 13 14 15 16 17 18 19 20
000
FTUS42 KGSP 300500 RRA
TAFAND
TAF
KAND 300540Z 3006/0106 00000KT 4SM BR FEW021
      TEMPO 3008/3012 2SM BR BKN008
     FM301200 00000KT 3SM BR SCT004
     FM301400 36003KT P6SM FEW050
     FM010200 00000KT P6SM FEW250=

USA.gov is the U.S. government's official web portal to all federal, state and local government web resources and services.